sensor_id;sensor_type;location;lat;lon;timestamp;P1;durP1;ratioP1;P2;durP2;ratioP2
31262;SDS011;17892;52.080;9.006;2023-12-14T00:00:27;5.20;;;2.15;;
31262;SDS011;17892;52.080;9.006;2023-12-14T00:02:53;8.88;;;3.03;;
31262;SDS011;17892;52.080;9.006;2023-12-14T00:05:18;4.82;;;2.88;;
31262;SDS011;17892;52.080;9.006;2023-12-14T00:07:44;7.57;;;3.00;;
31262;SDS011;17892;52.080;9.006;2023-12-14T00:10:10;4.32;;;2.38;;
31262;SDS011;17892;52.080;9.006;2023-12-14T00:12:37;3.70;;;2.13;;
31262;SDS011;17892;52.080;9.006;2023-12-14T00:15:03;4.50;;;2.10;;
31262;SDS011;17892;52.080;9.006;2023-12-14T00:17:30;4.05;;;2.00;;
31262;SDS011;17892;52.080;9.006;2023-12-14T00:19:55;3.20;;;1.52;;
31262;SDS011;17892;52.080;9.006;2023-12-14T00:22:21;2.30;;;1.23;;
31262;SDS011;17892;52.080;9.006;2023-12-14T00:24:47;3.05;;;1.48;;
31262;SDS011;17892;52.080;9.006;2023-12-14T00:27:12;3.05;;;1.27;;
31262;SDS011;17892;52.080;9.006;2023-12-14T00:29:38;3.13;;;1.42;;
31262;SDS011;17892;52.080;9.006;2023-12-14T00:32:04;2.55;;;1.20;;
31262;SDS011;17892;52.080;9.006;2023-12-14T00:34:30;2.85;;;1.10;;
31262;SDS011;17892;52.080;9.006;2023-12-14T00:36:56;2.72;;;1.33;;
31262;SDS011;17892;52.080;9.006;2023-12-14T00:39:21;2.38;;;1.20;;
31262;SDS011;17892;52.080;9.006;2023-12-14T00:41:47;2.33;;;0.82;;
31262;SDS011;17892;52.080;9.006;2023-12-14T00:44:13;2.10;;;0.90;;
31262;SDS011;17892;52.080;9.006;2023-12-14T00:46:38;2.58;;;1.13;;
31262;SDS011;17892;52.080;9.006;2023-12-14T00:49:04;2.63;;;1.25;;
31262;SDS011;17892;52.080;9.006;2023-12-14T00:51:29;2.33;;;1.13;;
31262;SDS011;17892;52.080;9.006;2023-12-14T00:53:55;2.97;;;1.38;;
31262;SDS011;17892;52.080;9.006;2023-12-14T00:56:21;2.78;;;1.52;;
31262;SDS011;17892;52.080;9.006;2023-12-14T00:58:47;3.10;;;1.42;;
31262;SDS011;17892;52.080;9.006;2023-12-14T01:01:12;3.95;;;1.55;;
31262;SDS011;17892;52.080;9.006;2023-12-14T01:03:38;3.38;;;1.70;;
31262;SDS011;17892;52.080;9.006;2023-12-14T01:06:04;4.00;;;1.70;;
31262;SDS011;17892;52.080;9.006;2023-12-14T01:08:30;2.83;;;1.38;;
31262;SDS011;17892;52.080;9.006;2023-12-14T01:10:55;3.00;;;1.45;;
31262;SDS011;17892;52.080;9.006;2023-12-14T01:13:21;3.97;;;1.95;;
31262;SDS011;17892;52.080;9.006;2023-12-14T01:15:47;3.72;;;2.03;;
31262;SDS011;17892;52.080;9.006;2023-12-14T01:18:13;3.40;;;1.30;;
31262;SDS011;17892;52.080;9.006;2023-12-14T01:20:39;3.55;;;1.55;;
31262;SDS011;17892;52.080;9.006;2023-12-14T01:23:04;3.58;;;1.73;;
31262;SDS011;17892;52.080;9.006;2023-12-14T01:25:30;4.43;;;2.10;;
31262;SDS011;17892;52.080;9.006;2023-12-14T01:27:56;4.20;;;1.90;;
31262;SDS011;17892;52.080;9.006;2023-12-14T01:30:21;4.35;;;1.92;;
31262;SDS011;17892;52.080;9.006;2023-12-14T01:32:47;3.67;;;1.50;;
31262;SDS011;17892;52.080;9.006;2023-12-14T01:35:13;3.72;;;1.77;;
31262;SDS011;17892;52.080;9.006;2023-12-14T01:37:38;4.32;;;2.15;;
31262;SDS011;17892;52.080;9.006;2023-12-14T01:40:05;3.30;;;2.00;;
31262;SDS011;17892;52.080;9.006;2023-12-14T01:42:31;4.63;;;1.90;;
31262;SDS011;17892;52.080;9.006;2023-12-14T01:44:57;3.30;;;1.50;;
31262;SDS011;17892;52.080;9.006;2023-12-14T01:47:22;4.30;;;1.90;;
31262;SDS011;17892;52.080;9.006;2023-12-14T01:49:48;4.38;;;2.05;;
31262;SDS011;17892;52.080;9.006;2023-12-14T01:52:14;3.97;;;2.05;;
31262;SDS011;17892;52.080;9.006;2023-12-14T01:54:40;3.92;;;2.03;;
31262;SDS011;17892;52.080;9.006;2023-12-14T01:57:05;3.75;;;1.70;;
31262;SDS011;17892;52.080;9.006;2023-12-14T01:59:31;4.15;;;2.08;;
31262;SDS011;17892;52.080;9.006;2023-12-14T02:01:57;3.55;;;1.77;;
31262;SDS011;17892;52.080;9.006;2023-12-14T02:04:24;3.80;;;1.90;;
31262;SDS011;17892;52.080;9.006;2023-12-14T02:06:50;3.72;;;1.52;;
31262;SDS011;17892;52.080;9.006;2023-12-14T02:09:16;5.25;;;2.78;;
31262;SDS011;17892;52.080;9.006;2023-12-14T02:11:42;2.92;;;1.30;;
31262;SDS011;17892;52.080;9.006;2023-12-14T02:14:11;3.80;;;1.65;;
31262;SDS011;17892;52.080;9.006;2023-12-14T02:16:37;4.25;;;1.42;;
31262;SDS011;17892;52.080;9.006;2023-12-14T02:19:05;4.53;;;1.80;;
31262;SDS011;17892;52.080;9.006;2023-12-14T02:21:31;3.90;;;1.55;;
31262;SDS011;17892;52.080;9.006;2023-12-14T02:23:57;3.00;;;1.27;;
31262;SDS011;17892;52.080;9.006;2023-12-14T02:26:22;4.43;;;2.25;;
31262;SDS011;17892;52.080;9.006;2023-12-14T02:28:48;2.85;;;1.50;;
31262;SDS011;17892;52.080;9.006;2023-12-14T02:31:14;4.50;;;2.28;;
31262;SDS011;17892;52.080;9.006;2023-12-14T02:33:40;4.97;;;2.65;;
31262;SDS011;17892;52.080;9.006;2023-12-14T02:36:05;4.03;;;1.88;;
31262;SDS011;17892;52.080;9.006;2023-12-14T02:38:31;4.18;;;2.20;;
31262;SDS011;17892;52.080;9.006;2023-12-14T02:40:57;4.32;;;2.05;;
31262;SDS011;17892;52.080;9.006;2023-12-14T02:43:23;4.55;;;2.30;;
31262;SDS011;17892;52.080;9.006;2023-12-14T02:45:49;4.80;;;2.15;;
31262;SDS011;17892;52.080;9.006;2023-12-14T02:48:15;3.85;;;2.13;;
31262;SDS011;17892;52.080;9.006;2023-12-14T02:50:41;4.03;;;2.10;;
31262;SDS011;17892;52.080;9.006;2023-12-14T02:53:06;3.40;;;1.60;;
31262;SDS011;17892;52.080;9.006;2023-12-14T02:55:32;4.13;;;1.80;;
31262;SDS011;17892;52.080;9.006;2023-12-14T02:57:58;4.80;;;2.70;;
31262;SDS011;17892;52.080;9.006;2023-12-14T03:00:23;4.75;;;2.40;;
31262;SDS011;17892;52.080;9.006;2023-12-14T03:02:49;3.08;;;1.67;;
31262;SDS011;17892;52.080;9.006;2023-12-14T03:05:15;3.78;;;1.63;;
31262;SDS011;17892;52.080;9.006;2023-12-14T03:07:41;3.45;;;1.73;;
31262;SDS011;17892;52.080;9.006;2023-12-14T03:10:06;3.22;;;1.60;;
31262;SDS011;17892;52.080;9.006;2023-12-14T03:12:33;4.30;;;2.15;;
31262;SDS011;17892;52.080;9.006;2023-12-14T03:14:58;4.85;;;2.55;;
31262;SDS011;17892;52.080;9.006;2023-12-14T03:17:24;4.45;;;2.17;;
31262;SDS011;17892;52.080;9.006;2023-12-14T03:19:50;3.50;;;1.73;;
31262;SDS011;17892;52.080;9.006;2023-12-14T03:22:15;4.07;;;2.10;;
31262;SDS011;17892;52.080;9.006;2023-12-14T03:24:41;3.30;;;1.50;;
31262;SDS011;17892;52.080;9.006;2023-12-14T03:27:07;3.13;;;1.25;;
31262;SDS011;17892;52.080;9.006;2023-12-14T03:29:33;5.05;;;1.75;;
31262;SDS011;17892;52.080;9.006;2023-12-14T03:31:59;3.75;;;1.92;;
31262;SDS011;17892;52.080;9.006;2023-12-14T03:34:25;5.82;;;2.25;;
31262;SDS011;17892;52.080;9.006;2023-12-14T03:36:51;3.72;;;1.80;;
31262;SDS011;17892;52.080;9.006;2023-12-14T03:39:17;3.35;;;1.83;;
31262;SDS011;17892;52.080;9.006;2023-12-14T03:41:43;4.18;;;2.25;;
31262;SDS011;17892;52.080;9.006;2023-12-14T03:44:09;4.13;;;2.10;;
31262;SDS011;17892;52.080;9.006;2023-12-14T03:46:34;3.90;;;1.88;;
31262;SDS011;17892;52.080;9.006;2023-12-14T03:49:00;3.50;;;1.73;;
31262;SDS011;17892;52.080;9.006;2023-12-14T03:51:27;3.33;;;1.90;;
31262;SDS011;17892;52.080;9.006;2023-12-14T03:53:53;4.50;;;2.08;;
31262;SDS011;17892;52.080;9.006;2023-12-14T03:56:19;4.32;;;2.22;;
31262;SDS011;17892;52.080;9.006;2023-12-14T03:58:44;4.18;;;2.03;;
31262;SDS011;17892;52.080;9.006;2023-12-14T04:01:19;4.10;;;1.92;;
31262;SDS011;17892;52.080;9.006;2023-12-14T04:03:46;4.05;;;2.20;;
31262;SDS011;17892;52.080;9.006;2023-12-14T04:06:13;5.25;;;2.72;;
31262;SDS011;17892;52.080;9.006;2023-12-14T04:08:39;3.72;;;1.80;;
31262;SDS011;17892;52.080;9.006;2023-12-14T04:11:08;4.38;;;2.15;;
31262;SDS011;17892;52.080;9.006;2023-12-14T04:13:33;3.70;;;1.83;;
31262;SDS011;17892;52.080;9.006;2023-12-14T04:15:59;3.92;;;1.83;;
31262;SDS011;17892;52.080;9.006;2023-12-14T04:18:26;4.85;;;2.55;;
31262;SDS011;17892;52.080;9.006;2023-12-14T04:20:52;4.65;;;2.60;;
31262;SDS011;17892;52.080;9.006;2023-12-14T04:23:17;4.90;;;2.28;;
31262;SDS011;17892;52.080;9.006;2023-12-14T04:25:44;4.05;;;2.20;;
31262;SDS011;17892;52.080;9.006;2023-12-14T04:28:09;5.50;;;2.63;;
31262;SDS011;17892;52.080;9.006;2023-12-14T04:30:35;4.60;;;2.45;;
31262;SDS011;17892;52.080;9.006;2023-12-14T04:33:01;5.07;;;2.50;;
31262;SDS011;17892;52.080;9.006;2023-12-14T04:35:26;5.13;;;2.50;;
31262;SDS011;17892;52.080;9.006;2023-12-14T04:37:52;4.43;;;2.13;;
31262;SDS011;17892;52.080;9.006;2023-12-14T04:40:18;4.40;;;2.50;;
31262;SDS011;17892;52.080;9.006;2023-12-14T04:42:44;4.45;;;2.50;;
31262;SDS011;17892;52.080;9.006;2023-12-14T04:45:09;5.57;;;3.00;;
31262;SDS011;17892;52.080;9.006;2023-12-14T04:47:35;5.07;;;2.40;;
31262;SDS011;17892;52.080;9.006;2023-12-14T04:50:02;4.60;;;2.53;;
31262;SDS011;17892;52.080;9.006;2023-12-14T04:52:28;6.15;;;3.42;;
31262;SDS011;17892;52.080;9.006;2023-12-14T04:54:54;6.43;;;3.38;;
31262;SDS011;17892;52.080;9.006;2023-12-14T04:57:19;5.47;;;3.05;;
31262;SDS011;17892;52.080;9.006;2023-12-14T04:59:45;6.32;;;3.28;;
31262;SDS011;17892;52.080;9.006;2023-12-14T05:02:11;5.35;;;3.10;;
31262;SDS011;17892;52.080;9.006;2023-12-14T05:04:37;6.15;;;3.10;;
31262;SDS011;17892;52.080;9.006;2023-12-14T05:07:02;5.07;;;2.85;;
31262;SDS011;17892;52.080;9.006;2023-12-14T05:09:28;5.80;;;3.42;;
31262;SDS011;17892;52.080;9.006;2023-12-14T05:11:54;5.88;;;2.95;;
31262;SDS011;17892;52.080;9.006;2023-12-14T05:14:20;5.45;;;3.17;;
31262;SDS011;17892;52.080;9.006;2023-12-14T05:16:45;6.10;;;3.40;;
31262;SDS011;17892;52.080;9.006;2023-12-14T05:19:11;5.28;;;2.65;;
31262;SDS011;17892;52.080;9.006;2023-12-14T05:21:40;5.03;;;2.85;;
31262;SDS011;17892;52.080;9.006;2023-12-14T05:24:05;6.97;;;3.50;;
31262;SDS011;17892;52.080;9.006;2023-12-14T05:26:31;5.43;;;2.97;;
31262;SDS011;17892;52.080;9.006;2023-12-14T05:28:57;6.43;;;3.50;;
31262;SDS011;17892;52.080;9.006;2023-12-14T05:31:23;6.72;;;3.55;;
31262;SDS011;17892;52.080;9.006;2023-12-14T05:33:48;5.53;;;2.90;;
31262;SDS011;17892;52.080;9.006;2023-12-14T05:36:14;6.00;;;3.42;;
31262;SDS011;17892;52.080;9.006;2023-12-14T05:38:40;6.85;;;3.47;;
31262;SDS011;17892;52.080;9.006;2023-12-14T05:41:06;5.45;;;2.90;;
31262;SDS011;17892;52.080;9.006;2023-12-14T05:43:32;5.32;;;3.08;;
31262;SDS011;17892;52.080;9.006;2023-12-14T05:45:58;3.88;;;1.92;;
31262;SDS011;17892;52.080;9.006;2023-12-14T05:48:24;5.70;;;3.03;;
31262;SDS011;17892;52.080;9.006;2023-12-14T05:50:51;4.65;;;2.67;;
31262;SDS011;17892;52.080;9.006;2023-12-14T05:53:18;7.20;;;3.25;;
31262;SDS011;17892;52.080;9.006;2023-12-14T05:55:43;4.40;;;2.40;;
31262;SDS011;17892;52.080;9.006;2023-12-14T05:58:09;4.35;;;2.15;;
31262;SDS011;17892;52.080;9.006;2023-12-14T06:00:35;4.05;;;2.00;;
31262;SDS011;17892;52.080;9.006;2023-12-14T06:03:01;3.88;;;2.08;;
31262;SDS011;17892;52.080;9.006;2023-12-14T06:05:27;4.80;;;2.40;;
31262;SDS011;17892;52.080;9.006;2023-12-14T06:07:53;4.60;;;2.05;;
31262;SDS011;17892;52.080;9.006;2023-12-14T06:10:18;4.13;;;2.42;;
31262;SDS011;17892;52.080;9.006;2023-12-14T06:12:44;5.57;;;2.50;;
31262;SDS011;17892;52.080;9.006;2023-12-14T06:15:10;3.72;;;1.95;;
31262;SDS011;17892;52.080;9.006;2023-12-14T06:17:36;4.38;;;2.20;;
31262;SDS011;17892;52.080;9.006;2023-12-14T06:20:04;3.92;;;1.80;;
31262;SDS011;17892;52.080;9.006;2023-12-14T06:22:37;3.58;;;1.92;;
31262;SDS011;17892;52.080;9.006;2023-12-14T06:25:02;3.95;;;2.00;;
31262;SDS011;17892;52.080;9.006;2023-12-14T06:27:29;4.32;;;2.40;;
31262;SDS011;17892;52.080;9.006;2023-12-14T06:29:54;4.97;;;2.42;;
31262;SDS011;17892;52.080;9.006;2023-12-14T06:32:20;4.10;;;2.08;;
31262;SDS011;17892;52.080;9.006;2023-12-14T06:34:46;4.18;;;1.98;;
31262;SDS011;17892;52.080;9.006;2023-12-14T06:37:12;4.22;;;2.15;;
31262;SDS011;17892;52.080;9.006;2023-12-14T06:39:40;4.80;;;2.50;;
31262;SDS011;17892;52.080;9.006;2023-12-14T06:42:06;5.15;;;2.47;;
31262;SDS011;17892;52.080;9.006;2023-12-14T06:44:32;4.38;;;2.28;;
31262;SDS011;17892;52.080;9.006;2023-12-14T06:46:58;4.45;;;2.40;;
31262;SDS011;17892;52.080;9.006;2023-12-14T06:49:23;4.93;;;2.45;;
31262;SDS011;17892;52.080;9.006;2023-12-14T06:51:50;4.90;;;2.22;;
31262;SDS011;17892;52.080;9.006;2023-12-14T06:54:15;4.72;;;2.40;;
31262;SDS011;17892;52.080;9.006;2023-12-14T06:56:41;5.00;;;2.60;;
31262;SDS011;17892;52.080;9.006;2023-12-14T06:59:07;5.18;;;2.70;;
31262;SDS011;17892;52.080;9.006;2023-12-14T07:01:33;4.50;;;2.45;;
31262;SDS011;17892;52.080;9.006;2023-12-14T07:03:59;4.50;;;2.50;;
31262;SDS011;17892;52.080;9.006;2023-12-14T07:06:24;5.47;;;3.05;;
31262;SDS011;17892;52.080;9.006;2023-12-14T07:08:50;4.82;;;2.60;;
31262;SDS011;17892;52.080;9.006;2023-12-14T07:11:16;4.05;;;2.10;;
31262;SDS011;17892;52.080;9.006;2023-12-14T07:13:42;4.75;;;2.60;;
31262;SDS011;17892;52.080;9.006;2023-12-14T07:16:08;4.80;;;2.28;;
31262;SDS011;17892;52.080;9.006;2023-12-14T07:18:36;4.32;;;2.20;;
31262;SDS011;17892;52.080;9.006;2023-12-14T07:21:03;5.40;;;2.95;;
31262;SDS011;17892;52.080;9.006;2023-12-14T07:23:29;4.97;;;2.63;;
31262;SDS011;17892;52.080;9.006;2023-12-14T07:25:55;4.75;;;2.50;;
31262;SDS011;17892;52.080;9.006;2023-12-14T07:28:21;5.93;;;3.05;;
31262;SDS011;17892;52.080;9.006;2023-12-14T07:30:47;5.82;;;3.03;;
31262;SDS011;17892;52.080;9.006;2023-12-14T07:33:14;6.25;;;2.60;;
31262;SDS011;17892;52.080;9.006;2023-12-14T07:35:40;5.13;;;2.30;;
31262;SDS011;17892;52.080;9.006;2023-12-14T07:38:06;4.88;;;2.58;;
31262;SDS011;17892;52.080;9.006;2023-12-14T07:40:32;5.43;;;2.60;;
31262;SDS011;17892;52.080;9.006;2023-12-14T07:42:57;5.90;;;2.80;;
31262;SDS011;17892;52.080;9.006;2023-12-14T07:45:23;4.47;;;1.92;;
31262;SDS011;17892;52.080;9.006;2023-12-14T07:47:49;4.20;;;2.33;;
31262;SDS011;17892;52.080;9.006;2023-12-14T07:50:14;5.88;;;3.13;;
31262;SDS011;17892;52.080;9.006;2023-12-14T07:52:40;4.90;;;2.40;;
31262;SDS011;17892;52.080;9.006;2023-12-14T07:55:06;4.03;;;1.98;;
31262;SDS011;17892;52.080;9.006;2023-12-14T07:57:33;6.40;;;3.42;;
31262;SDS011;17892;52.080;9.006;2023-12-14T07:59:58;4.47;;;2.60;;
31262;SDS011;17892;52.080;9.006;2023-12-14T08:02:24;6.82;;;3.53;;
31262;SDS011;17892;52.080;9.006;2023-12-14T08:04:50;6.30;;;3.45;;
31262;SDS011;17892;52.080;9.006;2023-12-14T08:07:15;5.80;;;2.90;;
31262;SDS011;17892;52.080;9.006;2023-12-14T08:09:41;4.53;;;2.20;;
31262;SDS011;17892;52.080;9.006;2023-12-14T08:12:07;4.20;;;2.60;;
31262;SDS011;17892;52.080;9.006;2023-12-14T08:14:33;4.70;;;2.38;;
31262;SDS011;17892;52.080;9.006;2023-12-14T08:16:59;4.45;;;2.10;;
31262;SDS011;17892;52.080;9.006;2023-12-14T08:19:26;4.32;;;1.88;;
31262;SDS011;17892;52.080;9.006;2023-12-14T08:21:52;3.65;;;1.75;;
31262;SDS011;17892;52.080;9.006;2023-12-14T08:24:18;4.05;;;1.92;;
31262;SDS011;17892;52.080;9.006;2023-12-14T08:26:44;4.20;;;2.38;;
31262;SDS011;17892;52.080;9.006;2023-12-14T08:29:09;5.63;;;2.03;;
31262;SDS011;17892;52.080;9.006;2023-12-14T08:31:35;3.53;;;1.90;;
31262;SDS011;17892;52.080;9.006;2023-12-14T08:34:01;3.60;;;1.55;;
31262;SDS011;17892;52.080;9.006;2023-12-14T08:36:28;3.97;;;1.95;;
31262;SDS011;17892;52.080;9.006;2023-12-14T08:38:54;4.63;;;2.22;;
31262;SDS011;17892;52.080;9.006;2023-12-14T08:41:19;3.78;;;1.70;;
31262;SDS011;17892;52.080;9.006;2023-12-14T08:43:45;3.47;;;1.63;;
31262;SDS011;17892;52.080;9.006;2023-12-14T08:46:11;4.57;;;2.50;;
31262;SDS011;17892;52.080;9.006;2023-12-14T08:48:37;4.20;;;2.10;;
31262;SDS011;17892;52.080;9.006;2023-12-14T08:51:03;4.03;;;2.15;;
31262;SDS011;17892;52.080;9.006;2023-12-14T08:53:29;4.57;;;2.50;;
31262;SDS011;17892;52.080;9.006;2023-12-14T08:55:55;4.25;;;2.05;;
31262;SDS011;17892;52.080;9.006;2023-12-14T08:58:21;3.67;;;1.98;;
31262;SDS011;17892;52.080;9.006;2023-12-14T09:00:47;3.90;;;2.20;;
31262;SDS011;17892;52.080;9.006;2023-12-14T09:03:17;4.20;;;2.40;;
31262;SDS011;17892;52.080;9.006;2023-12-14T09:05:46;4.70;;;2.38;;
31262;SDS011;17892;52.080;9.006;2023-12-14T09:08:11;3.97;;;2.03;;
31262;SDS011;17892;52.080;9.006;2023-12-14T09:10:40;4.65;;;2.35;;
31262;SDS011;17892;52.080;9.006;2023-12-14T09:13:06;4.80;;;2.78;;
31262;SDS011;17892;52.080;9.006;2023-12-14T09:15:32;4.90;;;2.30;;
31262;SDS011;17892;52.080;9.006;2023-12-14T09:17:59;5.93;;;3.10;;
31262;SDS011;17892;52.080;9.006;2023-12-14T09:20:25;4.05;;;2.35;;
31262;SDS011;17892;52.080;9.006;2023-12-14T09:22:51;4.70;;;2.47;;
31262;SDS011;17892;52.080;9.006;2023-12-14T09:25:17;5.18;;;2.65;;
31262;SDS011;17892;52.080;9.006;2023-12-14T09:27:43;5.28;;;2.65;;
31262;SDS011;17892;52.080;9.006;2023-12-14T09:30:09;5.85;;;2.70;;
31262;SDS011;17892;52.080;9.006;2023-12-14T09:32:35;5.72;;;2.90;;
31262;SDS011;17892;52.080;9.006;2023-12-14T09:35:01;5.10;;;2.95;;
31262;SDS011;17892;52.080;9.006;2023-12-14T09:37:27;5.88;;;2.58;;
31262;SDS011;17892;52.080;9.006;2023-12-14T09:39:53;6.07;;;3.03;;
31262;SDS011;17892;52.080;9.006;2023-12-14T09:42:19;5.28;;;2.75;;
31262;SDS011;17892;52.080;9.006;2023-12-14T09:44:46;6.05;;;3.40;;
31262;SDS011;17892;52.080;9.006;2023-12-14T09:47:16;4.30;;;2.45;;
31262;SDS011;17892;52.080;9.006;2023-12-14T09:49:42;4.50;;;2.47;;
31262;SDS011;17892;52.080;9.006;2023-12-14T09:52:09;6.00;;;2.67;;
31262;SDS011;17892;52.080;9.006;2023-12-14T09:54:35;4.65;;;2.60;;
31262;SDS011;17892;52.080;9.006;2023-12-14T09:57:00;4.05;;;2.40;;
31262;SDS011;17892;52.080;9.006;2023-12-14T09:59:26;5.28;;;3.08;;
31262;SDS011;17892;52.080;9.006;2023-12-14T10:01:52;4.70;;;2.80;;
31262;SDS011;17892;52.080;9.006;2023-12-14T10:04:18;8.75;;;3.33;;
31262;SDS011;17892;52.080;9.006;2023-12-14T10:06:45;4.93;;;2.80;;
31262;SDS011;17892;52.080;9.006;2023-12-14T10:09:13;5.22;;;2.83;;
31262;SDS011;17892;52.080;9.006;2023-12-14T10:11:40;4.68;;;2.63;;
31262;SDS011;17892;52.080;9.006;2023-12-14T10:14:17;5.03;;;2.95;;
31262;SDS011;17892;52.080;9.006;2023-12-14T10:16:51;5.05;;;3.03;;
31262;SDS011;17892;52.080;9.006;2023-12-14T10:19:18;5.28;;;2.67;;
31262;SDS011;17892;52.080;9.006;2023-12-14T10:21:48;4.25;;;2.53;;
31262;SDS011;17892;52.080;9.006;2023-12-14T10:24:15;3.70;;;2.05;;
31262;SDS011;17892;52.080;9.006;2023-12-14T10:26:42;4.45;;;2.45;;
31262;SDS011;17892;52.080;9.006;2023-12-14T10:29:10;4.93;;;2.38;;
31262;SDS011;17892;52.080;9.006;2023-12-14T10:31:36;4.85;;;2.95;;
31262;SDS011;17892;52.080;9.006;2023-12-14T10:34:05;5.45;;;2.90;;
31262;SDS011;17892;52.080;9.006;2023-12-14T10:36:31;4.35;;;2.47;;
31262;SDS011;17892;52.080;9.006;2023-12-14T10:38:58;4.85;;;3.00;;
31262;SDS011;17892;52.080;9.006;2023-12-14T10:41:26;5.18;;;3.13;;
31262;SDS011;17892;52.080;9.006;2023-12-14T10:43:55;4.38;;;2.53;;
31262;SDS011;17892;52.080;9.006;2023-12-14T10:46:21;4.90;;;3.10;;
31262;SDS011;17892;52.080;9.006;2023-12-14T10:48:49;4.43;;;2.47;;
31262;SDS011;17892;52.080;9.006;2023-12-14T10:51:22;5.45;;;3.15;;
31262;SDS011;17892;52.080;9.006;2023-12-14T10:53:49;5.88;;;3.42;;
31262;SDS011;17892;52.080;9.006;2023-12-14T10:56:18;5.72;;;2.55;;
31262;SDS011;17892;52.080;9.006;2023-12-14T10:58:56;7.68;;;4.07;;
31262;SDS011;17892;52.080;9.006;2023-12-14T11:01:24;5.63;;;3.70;;
31262;SDS011;17892;52.080;9.006;2023-12-14T11:03:56;5.10;;;3.30;;
31262;SDS011;17892;52.080;9.006;2023-12-14T11:08:51;5.90;;;3.30;;
31262;SDS011;17892;52.080;9.006;2023-12-14T11:11:19;4.35;;;2.83;;
31262;SDS011;17892;52.080;9.006;2023-12-14T11:13:50;6.15;;;3.28;;
31262;SDS011;17892;52.080;9.006;2023-12-14T11:16:25;6.30;;;3.67;;
31262;SDS011;17892;52.080;9.006;2023-12-14T11:21:45;5.97;;;3.55;;
31262;SDS011;17892;52.080;9.006;2023-12-14T11:24:12;5.70;;;3.40;;
31262;SDS011;17892;52.080;9.006;2023-12-14T11:26:38;4.93;;;2.45;;
31262;SDS011;17892;52.080;9.006;2023-12-14T11:29:05;6.30;;;3.13;;
31262;SDS011;17892;52.080;9.006;2023-12-14T11:31:32;4.93;;;3.08;;
31262;SDS011;17892;52.080;9.006;2023-12-14T11:33:59;5.30;;;3.42;;
31262;SDS011;17892;52.080;9.006;2023-12-14T11:36:26;4.60;;;2.60;;
31262;SDS011;17892;52.080;9.006;2023-12-14T11:38:52;4.28;;;2.58;;
31262;SDS011;17892;52.080;9.006;2023-12-14T11:41:20;3.50;;;1.92;;
31262;SDS011;17892;52.080;9.006;2023-12-14T11:43:46;4.40;;;2.22;;
31262;SDS011;17892;52.080;9.006;2023-12-14T11:46:14;3.78;;;2.05;;
31262;SDS011;17892;52.080;9.006;2023-12-14T11:48:40;3.40;;;1.60;;
31262;SDS011;17892;52.080;9.006;2023-12-14T11:51:09;4.65;;;2.08;;
31262;SDS011;17892;52.080;9.006;2023-12-14T11:53:35;2.95;;;1.38;;
31262;SDS011;17892;52.080;9.006;2023-12-14T11:56:04;3.25;;;1.52;;
31262;SDS011;17892;52.080;9.006;2023-12-14T11:58:33;3.67;;;2.13;;
31262;SDS011;17892;52.080;9.006;2023-12-14T12:03:37;3.45;;;1.80;;
31262;SDS011;17892;52.080;9.006;2023-12-14T12:06:03;3.15;;;1.70;;
31262;SDS011;17892;52.080;9.006;2023-12-14T12:08:29;2.95;;;1.73;;
31262;SDS011;17892;52.080;9.006;2023-12-14T12:10:55;3.28;;;1.50;;
31262;SDS011;17892;52.080;9.006;2023-12-14T12:13:22;3.33;;;1.90;;
31262;SDS011;17892;52.080;9.006;2023-12-14T12:15:48;3.95;;;1.58;;
31262;SDS011;17892;52.080;9.006;2023-12-14T12:18:15;4.20;;;2.47;;
31262;SDS011;17892;52.080;9.006;2023-12-14T12:20:42;3.63;;;2.10;;
31262;SDS011;17892;52.080;9.006;2023-12-14T12:23:08;4.15;;;2.42;;
31262;SDS011;17892;52.080;9.006;2023-12-14T12:25:34;3.50;;;1.60;;
31262;SDS011;17892;52.080;9.006;2023-12-14T12:28:00;3.83;;;1.50;;
31262;SDS011;17892;52.080;9.006;2023-12-14T12:30:31;4.25;;;2.10;;
31262;SDS011;17892;52.080;9.006;2023-12-14T12:32:57;3.00;;;1.25;;
31262;SDS011;17892;52.080;9.006;2023-12-14T12:35:23;2.95;;;1.50;;
31262;SDS011;17892;52.080;9.006;2023-12-14T12:37:50;2.92;;;1.35;;
31262;SDS011;17892;52.080;9.006;2023-12-14T12:40:20;3.03;;;1.60;;
31262;SDS011;17892;52.080;9.006;2023-12-14T12:42:51;3.15;;;1.45;;
31262;SDS011;17892;52.080;9.006;2023-12-14T12:45:17;3.08;;;1.42;;
31262;SDS011;17892;52.080;9.006;2023-12-14T12:47:44;2.67;;;1.30;;
31262;SDS011;17892;52.080;9.006;2023-12-14T12:50:10;2.95;;;1.10;;
31262;SDS011;17892;52.080;9.006;2023-12-14T12:52:36;2.70;;;1.20;;
31262;SDS011;17892;52.080;9.006;2023-12-14T12:55:02;2.50;;;1.13;;
31262;SDS011;17892;52.080;9.006;2023-12-14T12:57:32;2.83;;;1.27;;
31262;SDS011;17892;52.080;9.006;2023-12-14T12:59:58;2.58;;;1.02;;
31262;SDS011;17892;52.080;9.006;2023-12-14T13:02:24;2.22;;;0.90;;
31262;SDS011;17892;52.080;9.006;2023-12-14T13:04:49;2.75;;;1.23;;
31262;SDS011;17892;52.080;9.006;2023-12-14T13:07:15;3.22;;;1.30;;
31262;SDS011;17892;52.080;9.006;2023-12-14T13:09:43;2.75;;;1.10;;
31262;SDS011;17892;52.080;9.006;2023-12-14T13:12:09;2.40;;;1.15;;
31262;SDS011;17892;52.080;9.006;2023-12-14T13:14:35;2.70;;;1.10;;
31262;SDS011;17892;52.080;9.006;2023-12-14T13:17:01;2.85;;;1.27;;
31262;SDS011;17892;52.080;9.006;2023-12-14T13:19:26;2.53;;;1.13;;
31262;SDS011;17892;52.080;9.006;2023-12-14T13:21:53;2.22;;;1.10;;
31262;SDS011;17892;52.080;9.006;2023-12-14T13:24:21;2.45;;;1.20;;
31262;SDS011;17892;52.080;9.006;2023-12-14T13:26:49;3.08;;;1.50;;
31262;SDS011;17892;52.080;9.006;2023-12-14T13:29:14;2.83;;;1.50;;
31262;SDS011;17892;52.080;9.006;2023-12-14T13:31:40;2.67;;;1.30;;
31262;SDS011;17892;52.080;9.006;2023-12-14T13:34:06;2.63;;;1.20;;
31262;SDS011;17892;52.080;9.006;2023-12-14T13:36:31;2.67;;;1.40;;
31262;SDS011;17892;52.080;9.006;2023-12-14T13:38:57;3.03;;;1.42;;
31262;SDS011;17892;52.080;9.006;2023-12-14T13:41:23;2.92;;;1.33;;
31262;SDS011;17892;52.080;9.006;2023-12-14T13:43:49;3.05;;;1.58;;
31262;SDS011;17892;52.080;9.006;2023-12-14T13:46:16;3.00;;;1.23;;
31262;SDS011;17892;52.080;9.006;2023-12-14T13:48:43;3.80;;;1.67;;
31262;SDS011;17892;52.080;9.006;2023-12-14T13:51:08;3.42;;;1.55;;
31262;SDS011;17892;52.080;9.006;2023-12-14T13:53:34;2.72;;;1.27;;
31262;SDS011;17892;52.080;9.006;2023-12-14T13:56:00;3.45;;;1.60;;
31262;SDS011;17892;52.080;9.006;2023-12-14T13:58:25;3.17;;;1.30;;
31262;SDS011;17892;52.080;9.006;2023-12-14T14:00:51;3.55;;;1.40;;
31262;SDS011;17892;52.080;9.006;2023-12-14T14:03:16;3.45;;;1.63;;
31262;SDS011;17892;52.080;9.006;2023-12-14T14:05:42;2.60;;;1.50;;
31262;SDS011;17892;52.080;9.006;2023-12-14T14:08:09;2.67;;;1.27;;
31262;SDS011;17892;52.080;9.006;2023-12-14T14:10:36;2.97;;;1.50;;
31262;SDS011;17892;52.080;9.006;2023-12-14T14:13:01;2.72;;;1.50;;
31262;SDS011;17892;52.080;9.006;2023-12-14T14:15:27;3.10;;;1.25;;
31262;SDS011;17892;52.080;9.006;2023-12-14T14:17:53;4.07;;;1.50;;
31262;SDS011;17892;52.080;9.006;2023-12-14T14:20:20;2.67;;;1.27;;
31262;SDS011;17892;52.080;9.006;2023-12-14T14:22:47;2.80;;;1.30;;
31262;SDS011;17892;52.080;9.006;2023-12-14T14:25:13;3.13;;;1.63;;
31262;SDS011;17892;52.080;9.006;2023-12-14T14:27:38;3.15;;;1.52;;
31262;SDS011;17892;52.080;9.006;2023-12-14T14:30:06;3.08;;;1.67;;
31262;SDS011;17892;52.080;9.006;2023-12-14T14:32:32;3.50;;;1.83;;
31262;SDS011;17892;52.080;9.006;2023-12-14T14:35:00;3.20;;;1.58;;
31262;SDS011;17892;52.080;9.006;2023-12-14T14:37:26;3.00;;;1.50;;
31262;SDS011;17892;52.080;9.006;2023-12-14T14:39:52;3.78;;;1.88;;
31262;SDS011;17892;52.080;9.006;2023-12-14T14:42:17;3.25;;;1.83;;
31262;SDS011;17892;52.080;9.006;2023-12-14T14:44:43;4.05;;;2.03;;
31262;SDS011;17892;52.080;9.006;2023-12-14T14:47:08;3.17;;;1.55;;
31262;SDS011;17892;52.080;9.006;2023-12-14T14:49:34;3.20;;;1.50;;